sensor_id;sensor_type;location;lat;lon;timestamp;pressure;altitude;pressure_sealevel;temperature;humidity
71239;BME280;61342;51.442;7.370;2023-02-16T13:30:26;100715.09;;;10.84;80.12
71239;BME280;61342;51.442;7.370;2023-02-16T13:33:24;100696.03;;;11.02;79.42
71239;BME280;61342;51.442;7.370;2023-02-16T13:37:49;100694.94;;;11.44;79.10
71239;BME280;61342;51.442;7.370;2023-02-16T13:39:20;100701.75;;;11.51;79.05
71239;BME280;61342;51.442;7.370;2023-02-16T13:43:28;100683.41;;;11.76;78.28
71239;BME280;61342;51.442;7.370;2023-02-16T13:45:00;100678.69;;;11.79;77.90
71239;BME280;61342;51.442;7.370;2023-02-16T13:46:06;100680.75;;;11.89;77.88
71239;BME280;61342;51.442;7.370;2023-02-16T13:47:13;100680.19;;;11.96;77.57
71239;BME280;61342;51.442;7.370;2023-02-16T13:50:32;100665.47;;;12.05;77.38
71239;BME280;61342;51.442;7.370;2023-02-16T13:51:42;100667.31;;;12.13;76.62
71239;BME280;61342;51.442;7.370;2023-02-16T13:52:43;100662.03;;;12.17;76.59
71239;BME280;61342;51.442;7.370;2023-02-16T13:53:56;100655.97;;;12.21;76.29
71239;BME280;61342;51.442;7.370;2023-02-16T13:55:01;100654.44;;;12.20;76.02
71239;BME280;61342;51.442;7.370;2023-02-16T13:56:34;100652.56;;;12.28;76.17
71239;BME280;61342;51.442;7.370;2023-02-16T13:58:51;100649.34;;;12.37;75.91
71239;BME280;61342;51.442;7.370;2023-02-16T14:00:00;100646.19;;;12.40;75.38
71239;BME280;61342;51.442;7.370;2023-02-16T14:01:39;100651.41;;;12.42;75.34
71239;BME280;61342;51.442;7.370;2023-02-16T14:03:53;100646.91;;;12.52;75.16
71239;BME280;61342;51.442;7.370;2023-02-16T14:07:34;100647.63;;;12.58;75.02
71239;BME280;61342;51.442;7.370;2023-02-16T14:08:37;100650.25;;;12.61;74.70
71239;BME280;61342;51.442;7.370;2023-02-16T14:12:53;100634.75;;;12.64;74.22
71239;BME280;61342;51.442;7.370;2023-02-16T14:13:54;100630.00;;;12.66;74.08
71239;BME280;61342;51.442;7.370;2023-02-16T14:14:57;100637.34;;;12.67;74.22
71239;BME280;61342;51.442;7.370;2023-02-16T14:16:26;100650.47;;;12.68;73.83
71239;BME280;61342;51.442;7.370;2023-02-16T14:17:28;100643.91;;;12.68;74.13
71239;BME280;61342;51.442;7.370;2023-02-16T14:18:54;100635.78;;;12.66;74.02
71239;BME280;61342;51.442;7.370;2023-02-16T14:20:03;100636.56;;;12.67;74.04
71239;BME280;61342;51.442;7.370;2023-02-16T14:21:15;100623.75;;;12.63;73.84
71239;BME280;61342;51.442;7.370;2023-02-16T14:22:20;100629.47;;;12.68;74.18
71239;BME280;61342;51.442;7.370;2023-02-16T14:23:27;100627.13;;;12.66;73.88
71239;BME280;61342;51.442;7.370;2023-02-16T14:24:31;100624.03;;;12.65;73.72
71239;BME280;61342;51.442;7.370;2023-02-16T14:25:35;100635.00;;;12.66;74.13
71239;BME280;61342;51.442;7.370;2023-02-16T14:26:57;100627.94;;;12.62;73.64
71239;BME280;61342;51.442;7.370;2023-02-16T14:28:01;100628.97;;;12.64;73.86
71239;BME280;61342;51.442;7.370;2023-02-16T14:29:13;100628.97;;;12.64;74.03
71239;BME280;61342;51.442;7.370;2023-02-16T14:31:51;100630.59;;;12.60;73.42
71239;BME280;61342;51.442;7.370;2023-02-16T14:33:14;100638.94;;;12.63;73.88
71239;BME280;61342;51.442;7.370;2023-02-16T14:34:26;100636.38;;;12.60;74.06
71239;BME280;61342;51.442;7.370;2023-02-16T14:35:31;100624.84;;;12.60;74.08
71239;BME280;61342;51.442;7.370;2023-02-16T14:36:33;100622.97;;;12.62;73.83
71239;BME280;61342;51.442;7.370;2023-02-16T14:37:37;100626.41;;;12.61;74.14
71239;BME280;61342;51.442;7.370;2023-02-16T14:39:42;100625.31;;;12.64;74.01
71239;BME280;61342;51.442;7.370;2023-02-16T14:40:58;100623.25;;;12.59;73.93
71239;BME280;61342;51.442;7.370;2023-02-16T14:42:16;100635.56;;;12.59;73.73
71239;BME280;61342;51.442;7.370;2023-02-16T14:44:43;100634.25;;;12.60;74.24
71239;BME280;61342;51.442;7.370;2023-02-16T14:47:23;100628.25;;;12.58;74.06
71239;BME280;61342;51.442;7.370;2023-02-16T14:50:16;100629.88;;;12.48;73.96
71239;BME280;61342;51.442;7.370;2023-02-16T14:52:45;100620.47;;;12.48;73.71
71239;BME280;61342;51.442;7.370;2023-02-16T14:54:32;100630.97;;;12.45;74.13
71239;BME280;61342;51.442;7.370;2023-02-16T14:55:46;100622.84;;;12.44;73.98
71239;BME280;61342;51.442;7.370;2023-02-16T14:57:00;100615.25;;;12.41;74.17
71239;BME280;61342;51.442;7.370;2023-02-16T15:00:52;100628.13;;;12.40;74.56
71239;BME280;61342;51.442;7.370;2023-02-16T15:01:54;100622.34;;;12.40;73.90
71239;BME280;61342;51.442;7.370;2023-02-16T15:02:58;100632.81;;;12.43;74.33
71239;BME280;61342;51.442;7.370;2023-02-16T15:04:00;100622.09;;;12.38;74.42
71239;BME280;61342;51.442;7.370;2023-02-16T15:05:19;100626.53;;;12.39;74.58
71239;BME280;61342;51.442;7.370;2023-02-16T15:06:32;100617.34;;;12.40;74.53
71239;BME280;61342;51.442;7.370;2023-02-16T15:07:33;100615.00;;;12.39;74.63
71239;BME280;61342;51.442;7.370;2023-02-16T15:08:36;100605.06;;;12.40;74.49
71239;BME280;61342;51.442;7.370;2023-02-16T15:09:40;100611.31;;;12.44;74.65
71239;BME280;61342;51.442;7.370;2023-02-16T15:10:41;100608.16;;;12.42;74.83
71239;BME280;61342;51.442;7.370;2023-02-16T15:11:51;100610.22;;;12.47;74.87
71239;BME280;61342;51.442;7.370;2023-02-16T15:13:22;100610.22;;;12.47;74.96
71239;BME280;61342;51.442;7.370;2023-02-16T15:14:24;100608.63;;;12.51;75.24
71239;BME280;61342;51.442;7.370;2023-02-16T15:15:44;100606.00;;;12.53;75.19
71239;BME280;61342;51.442;7.370;2023-02-16T15:16:47;100599.72;;;12.49;75.06
71239;BME280;61342;51.442;7.370;2023-02-16T15:17:48;100594.91;;;12.63;75.33
71239;BME280;61342;51.442;7.370;2023-02-16T15:18:51;100600.41;;;12.66;75.03
71239;BME280;61342;51.442;7.370;2023-02-16T15:19:54;100589.34;;;12.70;75.09
71239;BME280;61342;51.442;7.370;2023-02-16T15:20:56;100595.13;;;12.70;75.17
71239;BME280;61342;51.442;7.370;2023-02-16T15:22:27;100582.78;;;12.69;74.82
71239;BME280;61342;51.442;7.370;2023-02-16T15:23:33;100586.13;;;12.79;74.94
71239;BME280;61342;51.442;7.370;2023-02-16T15:24:34;100585.84;;;12.82;74.85
71239;BME280;61342;51.442;7.370;2023-02-16T15:25:37;100582.41;;;12.84;74.76
71239;BME280;61342;51.442;7.370;2023-02-16T15:26:37;100580.56;;;12.86;74.60
71239;BME280;61342;51.442;7.370;2023-02-16T15:27:38;100582.09;;;12.93;74.63
71239;BME280;61342;51.442;7.370;2023-02-16T15:28:39;100579.47;;;12.95;74.27
71239;BME280;61342;51.442;7.370;2023-02-16T15:29:44;100589.66;;;12.96;74.40
71239;BME280;61342;51.442;7.370;2023-02-16T15:30:59;100579.69;;;12.97;74.26
71239;BME280;61342;51.442;7.370;2023-02-16T15:32:04;100575.50;;;12.98;74.16
71239;BME280;61342;51.442;7.370;2023-02-16T15:34:31;100576.28;;;12.98;74.25
71239;BME280;61342;51.442;7.370;2023-02-16T15:35:39;100575.22;;;13.01;74.14
71239;BME280;61342;51.442;7.370;2023-02-16T15:36:43;100574.66;;;13.03;74.03
71239;BME280;61342;51.442;7.370;2023-02-16T15:37:44;100573.88;;;13.02;73.94
71239;BME280;61342;51.442;7.370;2023-02-16T15:38:54;100579.09;;;13.04;73.85
71239;BME280;61342;51.442;7.370;2023-02-16T15:40:10;100566.56;;;13.01;73.92
71239;BME280;61342;51.442;7.370;2023-02-16T15:41:14;100569.13;;;13.05;73.78
71239;BME280;61342;51.442;7.370;2023-02-16T15:42:26;100565.47;;;13.04;73.87
71239;BME280;61342;51.442;7.370;2023-02-16T15:44:35;100570.16;;;13.07;73.58
71239;BME280;61342;51.442;7.370;2023-02-16T15:45:36;100570.69;;;13.06;73.29
71239;BME280;61342;51.442;7.370;2023-02-16T15:46:39;100581.97;;;13.09;73.56
71239;BME280;61342;51.442;7.370;2023-02-16T15:47:41;100583.50;;;13.10;73.48
71239;BME280;61342;51.442;7.370;2023-02-16T15:48:41;100582.47;;;13.08;73.43
71239;BME280;61342;51.442;7.370;2023-02-16T15:49:42;100587.19;;;13.11;73.40
71239;BME280;61342;51.442;7.370;2023-02-16T15:50:44;100581.69;;;13.07;73.30
71239;BME280;61342;51.442;7.370;2023-02-16T15:51:45;100587.72;;;13.09;73.27
71239;BME280;61342;51.442;7.370;2023-02-16T15:52:46;100597.41;;;13.12;73.15
71239;BME280;61342;51.442;7.370;2023-02-16T15:53:52;100594.28;;;13.10;72.87
71239;BME280;61342;51.442;7.370;2023-02-16T15:54:54;100595.03;;;13.10;72.96
71239;BME280;61342;51.442;7.370;2023-02-16T15:55:55;100588.75;;;13.12;73.08
71239;BME280;61342;51.442;7.370;2023-02-16T15:56:57;100590.06;;;13.11;72.79
71239;BME280;61342;51.442;7.370;2023-02-16T15:57:59;100596.63;;;13.11;72.82
71239;BME280;61342;51.442;7.370;2023-02-16T15:59:02;100592.69;;;13.09;72.84
71239;BME280;61342;51.442;7.370;2023-02-16T16:00:12;100585.63;;;13.10;72.51
71239;BME280;61342;51.442;7.370;2023-02-16T16:01:26;100584.59;;;13.07;72.87
71239;BME280;61342;51.442;7.370;2023-02-16T16:02:35;100591.94;;;13.08;72.46
71239;BME280;61342;51.442;7.370;2023-02-16T16:03:41;100588.78;;;13.06;72.44
71239;BME280;61342;51.442;7.370;2023-02-16T16:04:51;100589.59;;;13.07;72.43
71239;BME280;61342;51.442;7.370;2023-02-16T16:05:58;100585.91;;;13.06;72.72
71239;BME280;61342;51.442;7.370;2023-02-16T16:07:03;100584.34;;;13.05;72.34
71239;BME280;61342;51.442;7.370;2023-02-16T16:08:04;100577.56;;;13.03;72.24
71239;BME280;61342;51.442;7.370;2023-02-16T16:09:12;100582.53;;;13.02;72.19
71239;BME280;61342;51.442;7.370;2023-02-16T16:10:36;100568.97;;;12.97;72.56
71239;BME280;61342;51.442;7.370;2023-02-16T16:11:40;100576.53;;;13.00;72.68
71239;BME280;61342;51.442;7.370;2023-02-16T16:12:41;100574.72;;;12.97;72.48
